KPWT

Bremerton National Airport

Bremerton, Washington, USA
KPWT 260520Z 2606/2706 03003KT P6SM SKC
Issued Valid From Valid To
Apr-26 @ 05:20 UTC
(37 minutes ago)
Apr-26 @ 06:00 UTC
(in 3 minutes)
Apr-27 @ 06:00 UTC
(in 24 hours)
Apr-26 @ 06:00 to Apr-27 @ 06:00
KPWT 260520Z 2606/2706 03003KT P6SM SKC
Wind Visibility Clouds
30° at 3 knots Greater than 6 miles
  • Clear skies
KPWT 260520Z 2606/2706 03003KT P6SM SKC
Issued Apr-26 @ 05:20 UTC
(37 minutes ago)
Valid From Apr-26 @ 06:00 UTC
(in 3 minutes)
Valid To Apr-27 @ 06:00 UTC
(in 24 hours)
Apr-26 @ 06:00 - Apr-27 @ 06:00
Wind Visibility
30° at 3 knots Greater than 6 miles
Clouds
  • Clear skies